createdAt,value
2019-01-06T00:01:47.824Z,21.33
2019-01-06T00:04:42.219Z,19.47
2019-01-06T00:07:34.883Z,15.53
2019-01-06T00:13:08.281Z,17.33
2019-01-06T00:16:00.949Z,14.60
2019-01-06T00:18:53.603Z,14.27
2019-01-06T00:21:46.240Z,20.57
2019-01-06T00:24:38.879Z,17.57
2019-01-06T00:27:31.549Z,13.60
2019-01-06T00:33:30.589Z,19.40
2019-01-06T00:36:23.219Z,14.37
2019-01-06T00:39:16.434Z,17.37
2019-01-06T00:45:03.558Z,17.20
2019-01-06T00:50:50.323Z,12.50
2019-01-06T00:53:42.991Z,14.37
2019-01-06T00:56:35.632Z,9.10
2019-01-06T00:59:28.200Z,10.93
2019-01-06T01:02:20.861Z,11.50
2019-01-06T01:05:13.506Z,11.90
2019-01-06T01:08:25.448Z,10.43
2019-01-06T01:11:18.081Z,9.93
2019-01-06T01:14:10.743Z,8.70
2019-01-06T01:17:03.387Z,11.03
2019-01-06T01:22:55.844Z,11.77
2019-01-06T01:28:48.182Z,10.47
2019-01-06T01:31:40.861Z,9.07
2019-01-06T01:34:53.557Z,9.30
2019-01-06T01:37:46.206Z,9.70
2019-01-06T01:43:24.315Z,13.30
2019-01-06T01:49:11.352Z,13.43
2019-01-06T01:52:03.989Z,13.20
2019-01-06T01:54:57.042Z,9.40
2019-01-06T01:57:49.681Z,10.70
2019-01-06T02:03:22.519Z,12.53
2019-01-06T02:08:55.603Z,10.03
2019-01-06T02:11:48.251Z,13.77
2019-01-06T02:14:41.048Z,11.40
2019-01-06T02:17:33.711Z,12.43
2019-01-06T02:20:26.624Z,9.40
2019-01-06T02:23:19.388Z,10.63
2019-01-06T02:26:12.095Z,9.30
2019-01-06T02:29:04.753Z,11.70
2019-01-06T02:31:57.447Z,11.77
2019-01-06T02:37:44.294Z,11.33
2019-01-06T02:40:37.004Z,9.73
2019-01-06T02:43:29.730Z,9.53
2019-01-06T02:49:16.509Z,11.53
2019-01-06T02:57:47.878Z,18.37
2019-01-06T03:00:40.541Z,10.60
2019-01-06T03:03:33.502Z,17.73
2019-01-06T03:06:26.266Z,29.13
2019-01-06T03:09:18.987Z,13.27
2019-01-06T03:12:11.665Z,12.70
2019-01-06T03:20:32.141Z,17.03
2019-01-06T03:23:24.785Z,11.87
2019-01-06T03:26:17.492Z,14.77
2019-01-06T03:29:10.165Z,16.83
2019-01-06T03:34:47.282Z,15.30
2019-01-06T03:37:39.931Z,14.10
2019-01-06T03:40:32.643Z,21.63
2019-01-06T03:46:19.589Z,17.23
2019-01-06T03:49:12.277Z,20.40
2019-01-06T03:52:04.979Z,12.20
2019-01-06T03:57:51.779Z,13.70
2019-01-06T04:00:44.455Z,16.33
2019-01-06T04:06:21.784Z,17.87
2019-01-06T04:09:14.435Z,16.13
2019-01-06T04:14:47.584Z,12.40
2019-01-06T04:17:40.248Z,14.27
2019-01-06T04:20:32.949Z,16.17
2019-01-06T04:23:25.612Z,12.47
2019-01-06T04:26:18.446Z,13.40
2019-01-06T04:29:11.103Z,12.27
2019-01-06T04:32:03.897Z,12.97
2019-01-06T04:34:56.549Z,13.07
2019-01-06T04:37:49.359Z,13.03
2019-01-06T04:40:42.008Z,14.10
2019-01-06T04:43:34.825Z,13.90
2019-01-06T04:46:27.484Z,12.63
2019-01-06T04:54:44.777Z,14.53
2019-01-06T04:57:37.545Z,13.20
2019-01-06T05:00:30.243Z,13.73
2019-01-06T05:03:22.895Z,13.23
2019-01-06T05:06:15.595Z,24.93
2019-01-06T05:09:08.249Z,22.63
2019-01-06T05:12:00.952Z,16.50
2019-01-06T05:14:53.603Z,18.47
2019-01-06T05:17:46.329Z,11.63
2019-01-06T05:20:39.004Z,11.47
2019-01-06T05:26:11.903Z,24.93
2019-01-06T05:29:04.554Z,10.67
2019-01-06T05:31:57.246Z,11.13
2019-01-06T05:34:49.921Z,11.90
2019-01-06T05:37:42.724Z,15.93
2019-01-06T05:40:35.399Z,22.63
2019-01-06T05:43:28.100Z,12.30
2019-01-06T05:46:20.750Z,15.30
2019-01-06T05:49:13.466Z,24.17
2019-01-06T05:55:00.295Z,24.90
2019-01-06T05:57:52.950Z,26.80
2019-01-06T06:00:45.738Z,25.43
2019-01-06T06:03:38.395Z,15.47
2019-01-06T06:06:31.111Z,16.60
2019-01-06T06:12:36.946Z,16.20
2019-01-06T06:15:29.610Z,16.33
2019-01-06T06:18:22.334Z,19.87
2019-01-06T06:21:14.993Z,15.27
2019-01-06T06:24:07.764Z,14.83
2019-01-06T06:27:00.421Z,13.30
2019-01-06T06:29:53.223Z,21.27
2019-01-06T06:32:45.879Z,15.90
2019-01-06T06:35:38.669Z,16.83
2019-01-06T06:38:31.328Z,17.60
2019-01-06T06:41:24.038Z,21.30
2019-01-06T06:44:16.720Z,21.60
2019-01-06T06:47:09.396Z,17.03
2019-01-06T06:50:02.078Z,22.37
2019-01-06T06:52:54.930Z,16.87
2019-01-06T06:55:47.592Z,18.90
2019-01-06T07:01:45.197Z,19.23
2019-01-06T07:04:37.869Z,23.73
2019-01-06T07:10:14.296Z,20.60
2019-01-06T07:16:01.097Z,20.73
2019-01-06T07:18:53.759Z,21.73
2019-01-06T07:21:47.804Z,19.67
2019-01-06T07:27:35.082Z,21.20
2019-01-06T07:30:27.746Z,21.33
2019-01-06T07:33:20.442Z,20.90
2019-01-06T07:36:13.112Z,23.00
2019-01-06T07:41:50.285Z,19.97
2019-01-06T07:44:42.961Z,21.27
2019-01-06T07:47:35.664Z,23.83
2019-01-06T07:53:22.535Z,23.60
2019-01-06T07:59:09.389Z,21.00
2019-01-06T08:02:02.086Z,19.53
2019-01-06T08:04:54.834Z,24.80
2019-01-06T08:07:47.500Z,16.43
2019-01-06T08:10:40.238Z,19.70
2019-01-06T08:19:07.244Z,19.33
2019-01-06T08:21:59.898Z,19.97
2019-01-06T08:24:52.709Z,19.20
2019-01-06T08:27:45.372Z,17.37
2019-01-06T08:30:38.078Z,18.93
2019-01-06T08:33:30.785Z,17.83
2019-01-06T08:36:23.476Z,20.23
2019-01-06T08:39:16.160Z,21.07
2019-01-06T08:42:08.948Z,21.87
2019-01-06T08:45:01.631Z,19.37
2019-01-06T08:53:22.353Z,20.60
2019-01-06T08:59:09.205Z,20.80
2019-01-06T09:02:01.885Z,21.73
2019-01-06T09:04:54.595Z,20.37
2019-01-06T09:07:47.247Z,25.10
2019-01-06T09:13:20.590Z,23.70
2019-01-06T09:16:13.288Z,26.73
2019-01-06T09:19:06.035Z,24.73
2019-01-06T09:21:58.704Z,25.30
2019-01-06T09:24:51.413Z,37.30
2019-01-06T09:27:44.077Z,51.00
2019-01-06T09:30:36.783Z,35.87
2019-01-06T09:33:29.463Z,33.87
2019-01-06T09:36:22.159Z,25.10
2019-01-06T09:42:20.955Z,19.97
2019-01-06T09:45:13.621Z,22.63
2019-01-06T09:48:06.324Z,16.03
2019-01-06T09:50:59.000Z,25.87
2019-01-06T09:53:51.699Z,17.17
2019-01-06T09:56:44.360Z,17.67
2019-01-06T09:59:37.156Z,17.63
2019-01-06T10:02:29.825Z,19.90
2019-01-06T10:05:22.696Z,18.40
2019-01-06T10:08:15.360Z,17.80
2019-01-06T10:11:08.061Z,17.70
2019-01-06T10:14:02.628Z,17.60
2019-01-06T10:16:55.385Z,15.50
2019-01-06T10:25:22.657Z,14.07
2019-01-06T10:28:15.408Z,18.77
2019-01-06T10:31:08.089Z,25.13
2019-01-06T10:34:00.760Z,24.47
2019-01-06T10:36:53.469Z,21.77
2019-01-06T10:39:46.147Z,20.27
2019-01-06T10:42:38.936Z,18.10
2019-01-06T10:48:25.760Z,19.57
2019-01-06T10:51:18.437Z,17.33
2019-01-06T10:54:11.137Z,15.30
2019-01-06T10:57:03.810Z,22.10
2019-01-06T10:59:56.501Z,20.20
2019-01-06T11:02:49.184Z,15.80
2019-01-06T11:05:41.968Z,17.93
2019-01-06T11:08:34.630Z,23.10
2019-01-06T11:11:27.413Z,20.23
2019-01-06T11:17:14.213Z,17.50
2019-01-06T11:20:06.809Z,15.33
2019-01-06T11:22:59.503Z,17.97
2019-01-06T11:25:52.173Z,13.77
2019-01-06T11:28:44.872Z,15.60
2019-01-06T11:31:37.530Z,10.03
2019-01-06T11:34:30.222Z,10.77
2019-01-06T11:37:22.890Z,12.00
2019-01-06T11:40:15.589Z,10.60
2019-01-06T11:43:08.252Z,13.80
2019-01-06T11:46:00.954Z,11.13
2019-01-06T11:54:28.158Z,7.60
2019-01-06T12:00:14.937Z,6.23
2019-01-06T12:03:07.603Z,6.47
2019-01-06T12:08:41.378Z,5.77
2019-01-06T12:11:35.170Z,5.67
2019-01-06T12:14:27.867Z,6.07
2019-01-06T12:17:20.513Z,6.43
2019-01-06T12:20:13.405Z,5.30
2019-01-06T12:23:06.066Z,6.57
2019-01-06T12:25:58.761Z,6.70
2019-01-06T12:31:45.623Z,5.50
2019-01-06T12:34:38.285Z,10.13
2019-01-06T12:37:30.978Z,6.37
2019-01-06T12:43:42.781Z,6.40
2019-01-06T12:46:35.442Z,5.37
2019-01-06T12:49:28.153Z,10.00
2019-01-06T12:52:20.872Z,6.73
2019-01-06T12:57:53.862Z,6.90
2019-01-06T13:00:46.531Z,6.87
2019-01-06T13:03:39.224Z,6.50
2019-01-06T13:09:46.779Z,7.70
2019-01-06T13:12:39.452Z,9.67
2019-01-06T13:18:15.934Z,9.37
2019-01-06T13:21:08.602Z,7.60
2019-01-06T13:24:01.286Z,6.83
2019-01-06T13:26:53.961Z,7.13
2019-01-06T13:29:46.827Z,7.20
2019-01-06T13:35:33.598Z,7.07
2019-01-06T13:38:26.275Z,6.90
2019-01-06T13:41:19.062Z,5.63
2019-01-06T13:44:11.731Z,5.40
2019-01-06T13:47:04.425Z,6.20
2019-01-06T13:55:35.825Z,5.43
2019-01-06T13:58:30.651Z,6.03
2019-01-06T14:01:23.452Z,6.13
2019-01-06T14:04:16.203Z,5.33
2019-01-06T14:07:08.925Z,5.67
2019-01-06T14:10:01.589Z,5.17
2019-01-06T14:15:38.357Z,5.23
2019-01-06T14:18:31.013Z,5.30
2019-01-06T14:21:23.721Z,6.03
2019-01-06T14:24:16.381Z,6.97
2019-01-06T14:27:09.110Z,10.10
2019-01-06T14:30:01.768Z,6.10
2019-01-06T14:32:54.481Z,4.70
2019-01-06T14:35:47.147Z,4.40
2019-01-06T14:38:39.857Z,5.03
2019-01-06T14:41:32.513Z,4.00
2019-01-06T14:44:25.229Z,4.60
2019-01-06T14:47:17.881Z,4.23
2019-01-06T14:50:10.582Z,4.00
2019-01-06T14:53:03.234Z,3.40
2019-01-06T14:55:55.953Z,3.60
2019-01-06T14:58:48.612Z,3.27
2019-01-06T15:01:41.407Z,3.47
2019-01-06T15:04:34.092Z,3.50
2019-01-06T15:10:07.442Z,4.97
2019-01-06T15:15:54.236Z,4.23
2019-01-06T15:18:46.894Z,3.60
2019-01-06T15:24:26.633Z,3.97
2019-01-06T15:27:19.403Z,3.60
2019-01-06T15:30:12.072Z,3.47
2019-01-06T15:35:45.037Z,4.00
2019-01-06T15:38:37.749Z,4.57
2019-01-06T15:41:30.401Z,3.90
2019-01-06T15:44:23.214Z,3.60
2019-01-06T15:47:15.866Z,3.90
2019-01-06T15:52:48.823Z,3.97
2019-01-06T15:55:41.594Z,5.27
2019-01-06T15:58:34.274Z,3.70
2019-01-06T16:04:26.693Z,3.80
2019-01-06T16:07:19.418Z,4.67
2019-01-06T16:10:12.077Z,3.90
2019-01-06T16:13:04.774Z,4.20
2019-01-06T16:15:57.433Z,3.73
2019-01-06T16:24:11.272Z,4.03
2019-01-06T16:27:03.925Z,5.37
2019-01-06T16:29:56.617Z,4.47
2019-01-06T16:32:49.281Z,4.20
2019-01-06T16:35:41.987Z,4.87
2019-01-06T16:38:34.648Z,4.10
2019-01-06T16:41:27.442Z,4.33
2019-01-06T16:44:20.095Z,4.30
2019-01-06T16:47:12.798Z,4.20
2019-01-06T16:50:05.464Z,4.33
2019-01-06T16:52:58.146Z,4.90
2019-01-06T16:58:44.933Z,3.83
2019-01-06T17:01:37.565Z,4.97
2019-01-06T17:07:10.723Z,6.60
2019-01-06T17:10:03.518Z,4.87
2019-01-06T17:12:56.181Z,5.53
2019-01-06T17:18:33.268Z,4.13
2019-01-06T17:21:25.862Z,4.03
2019-01-06T17:24:18.573Z,3.60
2019-01-06T17:27:11.237Z,3.50
2019-01-06T17:30:03.939Z,4.43
2019-01-06T17:32:56.635Z,6.03
2019-01-06T17:35:49.327Z,4.27
2019-01-06T17:38:42.016Z,4.20
2019-01-06T17:41:34.800Z,3.87
2019-01-06T17:47:21.597Z,4.30
2019-01-06T17:50:14.231Z,3.80
2019-01-06T17:53:06.934Z,4.50
2019-01-06T17:55:59.596Z,4.40
2019-01-06T17:58:52.332Z,6.97
2019-01-06T18:01:44.985Z,4.17
2019-01-06T18:04:37.696Z,6.93
2019-01-06T18:13:30.677Z,9.67
2019-01-06T18:16:23.373Z,8.83
2019-01-06T18:22:10.248Z,9.30
2019-01-06T18:27:57.030Z,6.87
2019-01-06T18:30:49.689Z,8.70
2019-01-06T18:33:42.389Z,8.60
2019-01-06T18:36:35.049Z,9.23
2019-01-06T18:42:13.574Z,6.20
2019-01-06T18:45:09.193Z,7.90
2019-01-06T18:48:00.709Z,8.63
2019-01-06T18:50:53.411Z,13.10
2019-01-06T18:56:40.191Z,8.40
2019-01-06T18:59:32.922Z,14.97
2019-01-06T19:02:25.626Z,11.47
2019-01-06T19:05:18.268Z,12.40
2019-01-06T19:08:10.894Z,8.37
2019-01-06T19:11:03.625Z,10.43
2019-01-06T19:13:56.311Z,6.87
2019-01-06T19:16:48.897Z,5.20
2019-01-06T19:22:26.003Z,8.77
2019-01-06T19:30:57.249Z,8.83
2019-01-06T19:33:49.953Z,10.10
2019-01-06T19:36:42.639Z,7.97
2019-01-06T19:39:35.389Z,8.73
2019-01-06T19:42:28.071Z,8.37
2019-01-06T19:45:20.764Z,7.83
2019-01-06T19:48:13.425Z,5.00
2019-01-06T19:51:06.227Z,5.30
2019-01-06T19:53:59.103Z,6.30
2019-01-06T19:56:52.128Z,5.10
2019-01-06T19:59:44.779Z,5.63
2019-01-06T20:02:29.837Z,8.50
2019-01-06T20:05:22.581Z,5.37
2019-01-06T20:08:15.315Z,8.13
2019-01-06T20:11:08.040Z,10.13
2019-01-06T20:14:00.857Z,7.27
2019-01-06T20:16:53.513Z,6.80
2019-01-06T20:19:46.307Z,10.37
2019-01-06T20:25:33.199Z,7.63
2019-01-06T20:31:20.068Z,10.50
2019-01-06T20:34:12.750Z,9.50
2019-01-06T20:37:05.522Z,8.87
2019-01-06T20:39:58.174Z,12.17
2019-01-06T20:45:31.353Z,11.57
2019-01-06T20:48:24.054Z,10.43
2019-01-06T20:51:17.171Z,10.27
2019-01-06T20:54:10.062Z,12.77
2019-01-06T20:57:03.100Z,15.87
2019-01-06T20:59:56.141Z,16.87
2019-01-06T21:02:48.798Z,15.93
2019-01-06T21:05:41.523Z,17.17
2019-01-06T21:11:28.626Z,14.70
2019-01-06T21:14:21.293Z,10.23
2019-01-06T21:19:54.492Z,10.57
2019-01-06T21:22:47.217Z,11.10
2019-01-06T21:25:39.932Z,14.83
2019-01-06T21:28:32.709Z,14.23
2019-01-06T21:31:25.382Z,17.07
2019-01-06T21:34:18.093Z,11.57
2019-01-06T21:37:10.757Z,11.03
2019-01-06T21:40:03.489Z,9.13
2019-01-06T21:42:56.157Z,14.07
2019-01-06T21:45:49.042Z,12.17
2019-01-06T21:48:41.719Z,7.07
2019-01-06T21:54:18.304Z,11.13
2019-01-06T21:57:11.027Z,8.13
2019-01-06T22:00:03.919Z,11.33
2019-01-06T22:02:56.626Z,7.20
2019-01-06T22:05:49.289Z,11.23
2019-01-06T22:08:41.984Z,8.97
2019-01-06T22:11:34.639Z,11.07
2019-01-06T22:14:27.339Z,9.37
2019-01-06T22:17:20.023Z,10.77
2019-01-06T22:20:12.724Z,11.00
2019-01-06T22:23:05.726Z,11.83
2019-01-06T22:25:58.512Z,5.10
2019-01-06T22:28:52.314Z,6.57
2019-01-06T22:31:45.601Z,10.27
2019-01-06T22:37:32.387Z,8.33
2019-01-06T22:43:44.308Z,14.83
2019-01-06T22:52:15.732Z,10.23
2019-01-06T22:55:08.427Z,11.97
2019-01-06T22:58:01.127Z,13.57
2019-01-06T23:00:53.814Z,14.17
2019-01-06T23:03:46.505Z,13.30
2019-01-06T23:06:39.268Z,14.57
2019-01-06T23:09:31.882Z,18.87
2019-01-06T23:12:24.681Z,14.63
2019-01-06T23:15:17.362Z,15.17
2019-01-06T23:18:10.039Z,17.07
2019-01-06T23:26:37.134Z,17.63
2019-01-06T23:29:29.909Z,17.83
2019-01-06T23:32:22.637Z,19.17
2019-01-06T23:35:15.434Z,19.93
2019-01-06T23:38:08.123Z,15.43
2019-01-06T23:41:00.841Z,15.43
2019-01-06T23:43:53.510Z,21.20
2019-01-06T23:46:46.276Z,18.57
2019-01-06T23:49:39.063Z,19.63
2019-01-06T23:52:31.786Z,19.53
